DLH23 VOMM-VOHS
Flight info
| Callsign | DLH23 |
|---|---|
| Flight time | 0h 51m |
| Altitude | 38000 |
| Route | KAMGU2A KAMGU W20 LEDOB LEDOB6 |
| Aircraft | A346/H-SDE2E3FGHIJ3J4J5M1RWXY/LB1D1 |
Departure
| Time | 2026-04-27 09:16 |
|---|---|
| Airport | Chennai International Airport (VOMM) |
Arrival
| Time | 2026-04-27 10:07 |
|---|---|
| Airport | Rajiv Gandhi International Airport (VOHS) |
| Time | Latitude | Longitude | Altitude | Speed | Heading |
|---|---|---|---|---|---|
| 2026-04-27 08:40 | 12.98359 | 80.15929 | 57 ft | 0 kts | 335° |
| 2026-04-27 08:54 | 12.98349 | 80.15933 | 57 ft | 1 kts | 336° |
| 2026-04-27 08:54 | 12.98340 | 80.15938 | 57 ft | 2 kts | 332° |
| 2026-04-27 08:54 | 12.98327 | 80.15947 | 58 ft | 2 kts | 313° |
| 2026-04-27 08:54 | 12.98318 | 80.15959 | 58 ft | 2 kts | 298° |
| 2026-04-27 08:55 | 12.98312 | 80.15973 | 58 ft | 2 kts | 285° |
| 2026-04-27 08:55 | 12.98310 | 80.15988 | 58 ft | 2 kts | 271° |
| 2026-04-27 08:55 | 12.98311 | 80.16004 | 58 ft | 2 kts | 257° |
| 2026-04-27 08:55 | 12.98314 | 80.16013 | 58 ft | 1 kts | 249° |
| 2026-04-27 08:56 | 12.98314 | 80.16014 | 58 ft | 0 kts | 248° |
| 2026-04-27 09:04 | 12.98313 | 80.16012 | 58 ft | 0 kts | 248° |
| 2026-04-27 09:04 | 12.98309 | 80.16002 | 58 ft | 2 kts | 248° |
| 2026-04-27 09:04 | 12.98302 | 80.15982 | 58 ft | 3 kts | 249° |
| 2026-04-27 09:04 | 12.98295 | 80.15951 | 58 ft | 5 kts | 263° |
| 2026-04-27 09:05 | 12.98296 | 80.15906 | 58 ft | 7 kts | 278° |
| 2026-04-27 09:05 | 12.98308 | 80.15849 | 57 ft | 8 kts | 284° |
| 2026-04-27 09:05 | 12.98325 | 80.15783 | 57 ft | 10 kts | 285° |
| 2026-04-27 09:05 | 12.98345 | 80.15711 | 57 ft | 11 kts | 286° |
| 2026-04-27 09:06 | 12.98357 | 80.15669 | 57 ft | 0 kts | 285° |
| 2026-04-27 09:07 | 12.98357 | 80.15667 | 57 ft | 0 kts | 285° |
| 2026-04-27 09:10 | 12.98360 | 80.15656 | 57 ft | 3 kts | 285° |
| 2026-04-27 09:10 | 12.98370 | 80.15618 | 57 ft | 7 kts | 284° |
| 2026-04-27 09:10 | 12.98387 | 80.15553 | 56 ft | 11 kts | 285° |
| 2026-04-27 09:10 | 12.98420 | 80.15479 | 55 ft | 11 kts | 316° |
| 2026-04-27 09:11 | 12.98484 | 80.15490 | 55 ft | 11 kts | 58° |
| 2026-04-27 09:11 | 12.98490 | 80.15502 | 55 ft | 0 kts | 63° |
| 2026-04-27 09:12 | 12.98490 | 80.15503 | 55 ft | 0 kts | 64° |
| 2026-04-27 09:12 | 12.98497 | 80.15518 | 55 ft | 4 kts | 64° |
| 2026-04-27 09:12 | 12.98511 | 80.15546 | 54 ft | 0 kts | 64° |
| 2026-04-27 09:12 | 12.98512 | 80.15547 | 54 ft | 1 kts | 64° |
| 2026-04-27 09:13 | 12.98516 | 80.15556 | 54 ft | 0 kts | 64° |
| 2026-04-27 09:15 | 12.98517 | 80.15559 | 54 ft | 2 kts | 65° |
| 2026-04-27 09:15 | 12.98599 | 80.15799 | 52 ft | 81 kts | 69° |
| 2026-04-27 09:15 | 12.98908 | 80.16615 | 55 ft | 162 kts | 69° |
| 2026-04-27 09:15 | 12.99404 | 80.17865 | 365 ft | 202 kts | 68° |
| 2026-04-27 09:16 | 12.99933 | 80.19162 | 1296 ft | 199 kts | 67° |
| 2026-04-27 09:16 | 13.00832 | 80.20168 | 2200 ft | 201 kts | 24° |
| 2026-04-27 09:16 | 13.02188 | 80.20285 | 3193 ft | 201 kts | 348° |
| 2026-04-27 09:16 | 13.03510 | 80.19908 | 4169 ft | 202 kts | 343° |
| 2026-04-27 09:17 | 13.04828 | 80.19487 | 5173 ft | 200 kts | 344° |
| 2026-04-27 09:17 | 13.06147 | 80.19082 | 5948 ft | 196 kts | 345° |
| 2026-04-27 09:17 | 13.07455 | 80.18703 | 6609 ft | 197 kts | 347° |
| 2026-04-27 09:17 | 13.08811 | 80.18323 | 7185 ft | 207 kts | 348° |
| 2026-04-27 09:18 | 13.10251 | 80.17935 | 7751 ft | 218 kts | 349° |
| 2026-04-27 09:18 | 13.11744 | 80.17537 | 8426 ft | 225 kts | 349° |
| 2026-04-27 09:18 | 13.13325 | 80.17117 | 8927 ft | 242 kts | 349° |
| 2026-04-27 09:18 | 13.15024 | 80.16670 | 9400 ft | 260 kts | 349° |
| 2026-04-27 09:19 | 13.16845 | 80.16190 | 9874 ft | 278 kts | 349° |
| 2026-04-27 09:19 | 13.18798 | 80.15676 | 10331 ft | 296 kts | 350° |
| 2026-04-27 09:19 | 13.20888 | 80.15251 | 10756 ft | 314 kts | 354° |
| 2026-04-27 09:19 | 13.23122 | 80.14987 | 11175 ft | 331 kts | 358° |
| 2026-04-27 09:20 | 13.25494 | 80.14830 | 11573 ft | 349 kts | 359° |
| 2026-04-27 09:20 | 13.28008 | 80.14681 | 12168 ft | 361 kts | 359° |
| 2026-04-27 09:20 | 13.30512 | 80.14400 | 12929 ft | 367 kts | 352° |
| 2026-04-27 09:20 | 13.33013 | 80.13766 | 13691 ft | 374 kts | 344° |
| 2026-04-27 09:21 | 13.35493 | 80.12801 | 14425 ft | 380 kts | 340° |
| 2026-04-27 09:21 | 13.37963 | 80.11736 | 15152 ft | 385 kts | 339° |
| 2026-04-27 09:21 | 13.40422 | 80.10659 | 15847 ft | 390 kts | 339° |
| 2026-04-27 09:21 | 13.42936 | 80.09558 | 16538 ft | 394 kts | 339° |
| 2026-04-27 09:22 | 13.45494 | 80.08440 | 17287 ft | 397 kts | 338° |
| 2026-04-27 09:22 | 13.48047 | 80.07327 | 18067 ft | 398 kts | 338° |
| 2026-04-27 09:22 | 13.50609 | 80.06213 | 18763 ft | 401 kts | 338° |
| 2026-04-27 09:22 | 13.53203 | 80.05084 | 19473 ft | 403 kts | 338° |
| 2026-04-27 09:23 | 13.55794 | 80.03958 | 20181 ft | 406 kts | 338° |
| 2026-04-27 09:23 | 13.58415 | 80.02820 | 20855 ft | 409 kts | 338° |
| 2026-04-27 09:23 | 13.61040 | 80.01679 | 21518 ft | 412 kts | 338° |
| 2026-04-27 09:23 | 13.63719 | 80.00515 | 22182 ft | 414 kts | 338° |
| 2026-04-27 09:24 | 13.66414 | 79.99343 | 22817 ft | 418 kts | 337° |
| 2026-04-27 09:24 | 13.69101 | 79.98174 | 23395 ft | 423 kts | 337° |
| 2026-04-27 09:24 | 13.71830 | 79.96987 | 23988 ft | 426 kts | 337° |
| 2026-04-27 09:24 | 13.74574 | 79.95793 | 24545 ft | 430 kts | 336° |
| 2026-04-27 09:25 | 13.77361 | 79.94581 | 25113 ft | 434 kts | 336° |
| 2026-04-27 09:25 | 13.80192 | 79.93348 | 25676 ft | 437 kts | 336° |
| 2026-04-27 09:25 | 13.83017 | 79.92117 | 26210 ft | 441 kts | 336° |
| 2026-04-27 09:25 | 13.85846 | 79.90884 | 26735 ft | 445 kts | 336° |
| 2026-04-27 09:26 | 13.88738 | 79.89625 | 27280 ft | 448 kts | 336° |
| 2026-04-27 09:26 | 13.91644 | 79.88359 | 27809 ft | 451 kts | 336° |
| 2026-04-27 09:26 | 13.94542 | 79.87096 | 28318 ft | 455 kts | 336° |
| 2026-04-27 09:26 | 13.97499 | 79.85805 | 28832 ft | 458 kts | 335° |
| 2026-04-27 09:27 | 14.00452 | 79.84517 | 29356 ft | 461 kts | 335° |
| 2026-04-27 09:27 | 14.03429 | 79.83219 | 29874 ft | 465 kts | 335° |
| 2026-04-27 09:27 | 14.06431 | 79.81909 | 30391 ft | 468 kts | 335° |
| 2026-04-27 09:27 | 14.09415 | 79.80606 | 31060 ft | 467 kts | 334° |
| 2026-04-27 09:28 | 14.12454 | 79.79285 | 31865 ft | 463 kts | 334° |
| 2026-04-27 09:28 | 14.15395 | 79.78011 | 32634 ft | 460 kts | 334° |
| 2026-04-27 09:28 | 14.18360 | 79.76723 | 33409 ft | 457 kts | 333° |
| 2026-04-27 09:28 | 14.21292 | 79.75445 | 34127 ft | 456 kts | 333° |
| 2026-04-27 09:29 | 14.24235 | 79.74159 | 34784 ft | 455 kts | 333° |
| 2026-04-27 09:29 | 14.27167 | 79.72876 | 35394 ft | 454 kts | 333° |
| 2026-04-27 09:29 | 14.30095 | 79.71594 | 35967 ft | 454 kts | 332° |
| 2026-04-27 09:29 | 14.33002 | 79.70321 | 36441 ft | 455 kts | 332° |
| 2026-04-27 09:30 | 14.35957 | 79.69024 | 36804 ft | 458 kts | 332° |
| 2026-04-27 09:30 | 14.38909 | 79.67729 | 37137 ft | 461 kts | 332° |
| 2026-04-27 09:30 | 14.41878 | 79.66427 | 37474 ft | 463 kts | 332° |
| 2026-04-27 09:30 | 14.44894 | 79.65105 | 37679 ft | 466 kts | 332° |
| 2026-04-27 09:31 | 14.47911 | 79.63783 | 37685 ft | 467 kts | 332° |
| 2026-04-27 09:31 | 14.53938 | 79.61140 | 37692 ft | 467 kts | 332° |
| 2026-04-27 09:32 | 14.59956 | 79.58501 | 37695 ft | 466 kts | 332° |
| 2026-04-27 09:32 | 14.65952 | 79.55869 | 37697 ft | 466 kts | 332° |
| 2026-04-27 09:33 | 14.71971 | 79.53225 | 37698 ft | 466 kts | 332° |
| 2026-04-27 09:33 | 14.77972 | 79.50588 | 37699 ft | 466 kts | 331° |
| 2026-04-27 09:34 | 14.83964 | 79.47954 | 37700 ft | 466 kts | 331° |
| 2026-04-27 09:34 | 14.89945 | 79.45322 | 37702 ft | 465 kts | 331° |
| 2026-04-27 09:35 | 14.95943 | 79.42680 | 37705 ft | 465 kts | 331° |
| 2026-04-27 09:35 | 15.01920 | 79.40027 | 37709 ft | 465 kts | 330° |
| 2026-04-27 09:36 | 15.07886 | 79.37350 | 37712 ft | 464 kts | 330° |
| 2026-04-27 09:36 | 15.13825 | 79.34694 | 37437 ft | 458 kts | 330° |
| 2026-04-27 09:36 | 15.16772 | 79.33369 | 36861 ft | 456 kts | 330° |
| 2026-04-27 09:37 | 15.19682 | 79.32053 | 36309 ft | 453 kts | 330° |
| 2026-04-27 09:37 | 15.22577 | 79.30747 | 35786 ft | 450 kts | 330° |
| 2026-04-27 09:37 | 15.25443 | 79.29455 | 35214 ft | 449 kts | 331° |
| 2026-04-27 09:37 | 15.28297 | 79.28172 | 34602 ft | 448 kts | 331° |
| 2026-04-27 09:38 | 15.31193 | 79.26868 | 33941 ft | 448 kts | 331° |
| 2026-04-27 09:38 | 15.34043 | 79.25588 | 33284 ft | 447 kts | 331° |
| 2026-04-27 09:38 | 15.36918 | 79.24297 | 32601 ft | 448 kts | 332° |
| 2026-04-27 09:38 | 15.39799 | 79.23001 | 31902 ft | 449 kts | 332° |
| 2026-04-27 09:39 | 15.42675 | 79.21708 | 31142 ft | 451 kts | 332° |
| 2026-04-27 09:39 | 15.45588 | 79.20396 | 30304 ft | 455 kts | 333° |
| 2026-04-27 09:39 | 15.48521 | 79.19078 | 29441 ft | 459 kts | 333° |
| 2026-04-27 09:39 | 15.51467 | 79.17760 | 28853 ft | 456 kts | 333° |
| 2026-04-27 09:40 | 15.54370 | 79.16466 | 28377 ft | 452 kts | 333° |
| 2026-04-27 09:40 | 15.57255 | 79.15183 | 27883 ft | 448 kts | 334° |
| 2026-04-27 09:40 | 15.60142 | 79.13896 | 27363 ft | 444 kts | 334° |
| 2026-04-27 09:40 | 15.62973 | 79.12634 | 26845 ft | 440 kts | 334° |
| 2026-04-27 09:41 | 15.65765 | 79.11386 | 26335 ft | 437 kts | 334° |
| 2026-04-27 09:41 | 15.68580 | 79.10129 | 25806 ft | 434 kts | 334° |
| 2026-04-27 09:41 | 15.71324 | 79.08902 | 25301 ft | 430 kts | 334° |
| 2026-04-27 09:41 | 15.74109 | 79.07658 | 24788 ft | 427 kts | 334° |
| 2026-04-27 09:42 | 15.76827 | 79.06441 | 24277 ft | 424 kts | 334° |
| 2026-04-27 09:42 | 15.79517 | 79.05238 | 23770 ft | 420 kts | 334° |
| 2026-04-27 09:42 | 15.82225 | 79.04028 | 23233 ft | 417 kts | 334° |
| 2026-04-27 09:42 | 15.84885 | 79.02837 | 22713 ft | 414 kts | 334° |
| 2026-04-27 09:43 | 15.87519 | 79.01657 | 22203 ft | 410 kts | 334° |
| 2026-04-27 09:43 | 15.90164 | 79.00473 | 21672 ft | 408 kts | 334° |
| 2026-04-27 09:43 | 15.92764 | 78.99307 | 21137 ft | 406 kts | 335° |
| 2026-04-27 09:43 | 15.95373 | 78.98137 | 20601 ft | 403 kts | 335° |
| 2026-04-27 09:44 | 15.97941 | 78.96986 | 20079 ft | 401 kts | 335° |
| 2026-04-27 09:44 | 16.00518 | 78.95830 | 19553 ft | 399 kts | 335° |
| 2026-04-27 09:44 | 16.03074 | 78.94682 | 19026 ft | 397 kts | 335° |
| 2026-04-27 09:44 | 16.05592 | 78.93552 | 18507 ft | 395 kts | 335° |
| 2026-04-27 09:45 | 16.08142 | 78.92408 | 17986 ft | 393 kts | 335° |
| 2026-04-27 09:45 | 16.10635 | 78.91289 | 17482 ft | 391 kts | 336° |
| 2026-04-27 09:45 | 16.13154 | 78.90163 | 16973 ft | 389 kts | 336° |
| 2026-04-27 09:45 | 16.15665 | 78.89041 | 16503 ft | 387 kts | 336° |
| 2026-04-27 09:46 | 16.18142 | 78.87933 | 16060 ft | 383 kts | 336° |
| 2026-04-27 09:46 | 16.20602 | 78.86829 | 15633 ft | 380 kts | 336° |
| 2026-04-27 09:46 | 16.23019 | 78.85744 | 15222 ft | 376 kts | 337° |
| 2026-04-27 09:46 | 16.25426 | 78.84663 | 14787 ft | 373 kts | 337° |
| 2026-04-27 09:47 | 16.27826 | 78.83583 | 14347 ft | 370 kts | 338° |
| 2026-04-27 09:47 | 16.30178 | 78.82525 | 13914 ft | 367 kts | 338° |
| 2026-04-27 09:47 | 16.32536 | 78.81464 | 13471 ft | 364 kts | 338° |
| 2026-04-27 09:47 | 16.34868 | 78.80415 | 13028 ft | 361 kts | 338° |
| 2026-04-27 09:48 | 16.37171 | 78.79378 | 12573 ft | 358 kts | 338° |
| 2026-04-27 09:48 | 16.39453 | 78.78353 | 12105 ft | 355 kts | 338° |
| 2026-04-27 09:48 | 16.41730 | 78.77329 | 11617 ft | 353 kts | 338° |
| 2026-04-27 09:48 | 16.43984 | 78.76315 | 11129 ft | 351 kts | 338° |
| 2026-04-27 09:49 | 16.46240 | 78.75300 | 10630 ft | 350 kts | 338° |
| 2026-04-27 09:49 | 16.48467 | 78.74295 | 10253 ft | 344 kts | 338° |
| 2026-04-27 09:49 | 16.50638 | 78.73315 | 10070 ft | 333 kts | 338° |
| 2026-04-27 09:49 | 16.52760 | 78.72356 | 9895 ft | 322 kts | 338° |
| 2026-04-27 09:50 | 16.54784 | 78.71442 | 9728 ft | 313 kts | 338° |
| 2026-04-27 09:50 | 16.56779 | 78.70542 | 9563 ft | 303 kts | 338° |
| 2026-04-27 09:50 | 16.58702 | 78.69675 | 9405 ft | 294 kts | 338° |
| 2026-04-27 09:50 | 16.60550 | 78.68840 | 9252 ft | 285 kts | 338° |
| 2026-04-27 09:51 | 16.62368 | 78.68018 | 9101 ft | 277 kts | 338° |
| 2026-04-27 09:51 | 16.64118 | 78.67226 | 8954 ft | 268 kts | 337° |
| 2026-04-27 09:51 | 16.65820 | 78.66456 | 8810 ft | 260 kts | 337° |
| 2026-04-27 09:51 | 16.67467 | 78.65710 | 8670 ft | 252 kts | 337° |
| 2026-04-27 09:52 | 16.69042 | 78.64996 | 8616 ft | 237 kts | 338° |
| 2026-04-27 09:52 | 16.70585 | 78.64297 | 8133 ft | 246 kts | 337° |
| 2026-04-27 09:52 | 16.72175 | 78.63577 | 7843 ft | 245 kts | 337° |
| 2026-04-27 09:52 | 16.73734 | 78.62869 | 7642 ft | 241 kts | 337° |
| 2026-04-27 09:53 | 16.75269 | 78.62175 | 7446 ft | 238 kts | 337° |
| 2026-04-27 09:53 | 16.76798 | 78.61482 | 7338 ft | 240 kts | 337° |
| 2026-04-27 09:53 | 16.78363 | 78.60771 | 7228 ft | 241 kts | 337° |
| 2026-04-27 09:53 | 16.79897 | 78.60076 | 7119 ft | 240 kts | 337° |
| 2026-04-27 09:54 | 16.81447 | 78.59373 | 7010 ft | 241 kts | 336° |
| 2026-04-27 09:54 | 16.82986 | 78.58675 | 6882 ft | 236 kts | 336° |
| 2026-04-27 09:54 | 16.84484 | 78.57996 | 6730 ft | 231 kts | 336° |
| 2026-04-27 09:54 | 16.85962 | 78.57324 | 6647 ft | 230 kts | 336° |
| 2026-04-27 09:55 | 16.87446 | 78.56649 | 6534 ft | 230 kts | 336° |
| 2026-04-27 09:55 | 16.88942 | 78.55969 | 6425 ft | 231 kts | 336° |
| 2026-04-27 09:55 | 16.91919 | 78.54617 | 6208 ft | 230 kts | 336° |
| 2026-04-27 09:56 | 16.93392 | 78.53947 | 6121 ft | 229 kts | 336° |
| 2026-04-27 09:56 | 16.94853 | 78.53284 | 6031 ft | 226 kts | 336° |
| 2026-04-27 09:56 | 16.96271 | 78.52639 | 5904 ft | 215 kts | 336° |
| 2026-04-27 09:56 | 16.97637 | 78.52018 | 5788 ft | 211 kts | 335° |
| 2026-04-27 09:57 | 16.99034 | 78.51459 | 5673 ft | 211 kts | 342° |
| 2026-04-27 09:57 | 17.00481 | 78.51110 | 5560 ft | 211 kts | 351° |
| 2026-04-27 09:57 | 17.01957 | 78.50981 | 5461 ft | 211 kts | 357° |
| 2026-04-27 09:57 | 17.03935 | 78.50938 | 5346 ft | 210 kts | 359° |
| 2026-04-27 09:58 | 17.04909 | 78.50924 | 5284 ft | 211 kts | 358° |
| 2026-04-27 09:58 | 17.06387 | 78.50900 | 5208 ft | 211 kts | 358° |
| 2026-04-27 09:58 | 17.07878 | 78.50873 | 5140 ft | 211 kts | 358° |
| 2026-04-27 09:58 | 17.09346 | 78.50843 | 5071 ft | 210 kts | 358° |
| 2026-04-27 09:59 | 17.10818 | 78.50813 | 5000 ft | 210 kts | 358° |
| 2026-04-27 09:59 | 17.12259 | 78.50951 | 4839 ft | 203 kts | 17° |
| 2026-04-27 09:59 | 17.13471 | 78.51661 | 4710 ft | 198 kts | 42° |
| 2026-04-27 09:59 | 17.14296 | 78.52809 | 4591 ft | 198 kts | 66° |
| 2026-04-27 10:00 | 17.14615 | 78.54195 | 4482 ft | 197 kts | 86° |
| 2026-04-27 10:00 | 17.14658 | 78.55636 | 4374 ft | 197 kts | 90° |
| 2026-04-27 10:00 | 17.14663 | 78.57079 | 4261 ft | 196 kts | 91° |
| 2026-04-27 10:00 | 17.14671 | 78.58480 | 4095 ft | 187 kts | 90° |
| 2026-04-27 10:01 | 17.14691 | 78.60286 | 3939 ft | 185 kts | 90° |
| 2026-04-27 10:01 | 17.14787 | 78.61163 | 3852 ft | 185 kts | 73° |
| 2026-04-27 10:01 | 17.15454 | 78.62301 | 3734 ft | 185 kts | 42° |
| 2026-04-27 10:01 | 17.16570 | 78.62934 | 3640 ft | 181 kts | 11° |
| 2026-04-27 10:02 | 17.17825 | 78.63064 | 3645 ft | 179 kts | 1° |
| 2026-04-27 10:02 | 17.19093 | 78.63100 | 3635 ft | 180 kts | 0° |
| 2026-04-27 10:02 | 17.20365 | 78.63128 | 3633 ft | 180 kts | 1° |
| 2026-04-27 10:02 | 17.21624 | 78.63163 | 3624 ft | 178 kts | 0° |
| 2026-04-27 10:03 | 17.22812 | 78.62918 | 3600 ft | 173 kts | 321° |
| 2026-04-27 10:03 | 17.23370 | 78.61883 | 3623 ft | 167 kts | 272° |
| 2026-04-27 10:03 | 17.23326 | 78.60642 | 3647 ft | 170 kts | 263° |
| 2026-04-27 10:03 | 17.23205 | 78.59402 | 3638 ft | 171 kts | 264° |
| 2026-04-27 10:04 | 17.23124 | 78.58154 | 3633 ft | 171 kts | 266° |
| 2026-04-27 10:04 | 17.23081 | 78.56908 | 3631 ft | 170 kts | 268° |
| 2026-04-27 10:04 | 17.23058 | 78.55666 | 3634 ft | 170 kts | 268° |
| 2026-04-27 10:04 | 17.23041 | 78.54418 | 3633 ft | 171 kts | 268° |
| 2026-04-27 10:05 | 17.23024 | 78.53165 | 3570 ft | 172 kts | 268° |
| 2026-04-27 10:05 | 17.23007 | 78.51935 | 3348 ft | 166 kts | 268° |
| 2026-04-27 10:05 | 17.22992 | 78.50748 | 3096 ft | 159 kts | 268° |
| 2026-04-27 10:05 | 17.22974 | 78.49594 | 3052 ft | 157 kts | 268° |
| 2026-04-27 10:06 | 17.22955 | 78.48453 | 3021 ft | 158 kts | 268° |
| 2026-04-27 10:06 | 17.22940 | 78.47303 | 2717 ft | 160 kts | 267° |
| 2026-04-27 10:06 | 17.22915 | 78.46129 | 2308 ft | 158 kts | 267° |
| 2026-04-27 10:06 | 17.22902 | 78.45001 | 2074 ft | 152 kts | 267° |
| 2026-04-27 10:07 | 17.22892 | 78.44012 | 2039 ft | 104 kts | 269° |
| 2026-04-27 10:07 | 17.22885 | 78.43465 | 2022 ft | 45 kts | 269° |
| 2026-04-27 10:07 | 17.22882 | 78.43253 | 2015 ft | 22 kts | 269° |
| 2026-04-27 10:07 | 17.22902 | 78.43087 | 2012 ft | 24 kts | 285° |
| 2026-04-27 10:08 | 17.22944 | 78.42973 | 2008 ft | 26 kts | 298° |
| 2026-04-27 10:08 | 17.23021 | 78.42859 | 2003 ft | 11 kts | 337° |
| 2026-04-27 10:08 | 17.23068 | 78.42879 | 2005 ft | 6 kts | 59° |
| 2026-04-27 10:08 | 17.23078 | 78.42912 | 2007 ft | 2 kts | 80° |
| 2026-04-27 10:09 | 17.23080 | 78.42930 | 2008 ft | 2 kts | 84° |
| 2026-04-27 10:09 | 17.23082 | 78.42962 | 2009 ft | 6 kts | 86° |
| 2026-04-27 10:09 | 17.23084 | 78.43037 | 2011 ft | 14 kts | 89° |
| 2026-04-27 10:09 | 17.23116 | 78.43134 | 2015 ft | 14 kts | 36° |
| 2026-04-27 10:10 | 17.23224 | 78.43157 | 2016 ft | 17 kts | 2° |
| 2026-04-27 10:10 | 17.23355 | 78.43161 | 2016 ft | 19 kts | 359° |
| 2026-04-27 10:10 | 17.23388 | 78.43160 | 2014 ft | 0 kts | 359° |